Aérodrome :
LOGIN :

S'inscrire | Disclaimer

   EN    FR    IT 

 










Légende :    VFR   VFR Marginal   IFR   IFR Intensif   IFR Très Intensif
Visi : 
Plafond : 
>= 8 km
>= 3000ft
5 à 8 km
1000 à 3000 ft
1500m à 5 km
500 à 1000 ft
800 à 1500m
200 à 500 ft
< 800m
< 200 ft
Symboles :   Orages  Brouillard  Fortes neiges  Fortes précipitations  Vent > 20 kt
SIGMETs :   Divers  Orages  Givrage  Turbulence  Onde Orograph.  Cendres Volcan.







- Altitude de l'aérodrome : 157 ft
- Code IATA : SXF


EDDB - Berlin Schönefeld

DERNIER METAR :
  • 101950Z 27017KT 9999 -RA BKN015 04/01 Q1009 TEMPO 27020G30KT

METARs EXPIRÉS :
  • 101920Z 27018KT 9999 -RA BKN015 04/01 Q1009 TEMPO 27020G30KT
  • 101850Z 27019KT 9999 -RA BKN016 04/01 Q1009 TEMPO 27020G30KT
  • 101820Z 27018G29KT 9999 BKN016 04/01 Q1009 TEMPO 27020G30KT
  • 101750Z 28017KT 9999 BKN015 04/01 Q1009 TEMPO 27020G30KT
  • 101720Z 27018KT 9999 -RA BKN015 04/01 Q1009 TEMPO 27020G30KT

TAF TAF EDDB
Valide du 10 à 18h jusqu'au 11 à 18h UTC


101700Z 1018/1118 27015G25KT 9999 BKN020
TEMPO 1018/1022 4500 -SHRASN BKN012CB
BECMG 1102/1105 BKN010
BECMG 1106/1109 30013KT
BECMG 1109/1112 SCT012 BKN015
Pas de NOTAMs connus pour ce terrain.



MET'MAP, la Météo Aéronautique d'un coup d'oeil ! - Copyright ORBIFLY Décembre 2007 - Disclaimer

ORBIFLY MET'MAP TEAM :

Programmation & Développement : Alexandra Zaïnal
Conception & Développement : Baudouin d'Aumeries
Co-Programmation & Développement : Marc-Olivier Méhu
Soutien technique & logistique : Manuel Goepfert

Contact : metmap@orbifly.com




SOURCES & CREDITS :

   NOAA